sensor_id;sensor_type;location;lat;lon;timestamp;temperature;humidity
36450;DHT22;22475;51.390;7.180;2024-01-27T00:01:07;11.30;73.70
36450;DHT22;22475;51.390;7.180;2024-01-27T00:03:33;11.30;73.70
36450;DHT22;22475;51.390;7.180;2024-01-27T00:06:02;11.30;73.90
36450;DHT22;22475;51.390;7.180;2024-01-27T00:08:28;11.30;73.60
36450;DHT22;22475;51.390;7.180;2024-01-27T00:10:55;11.30;73.60
36450;DHT22;22475;51.390;7.180;2024-01-27T00:13:22;11.30;73.80
36450;DHT22;22475;51.390;7.180;2024-01-27T00:15:49;11.30;73.70
36450;DHT22;22475;51.390;7.180;2024-01-27T00:18:16;11.30;73.60
36450;DHT22;22475;51.390;7.180;2024-01-27T00:20:42;11.30;73.50
36450;DHT22;22475;51.390;7.180;2024-01-27T00:23:10;11.30;73.40
36450;DHT22;22475;51.390;7.180;2024-01-27T00:25:37;11.30;73.60
36450;DHT22;22475;51.390;7.180;2024-01-27T00:28:04;11.30;73.60
36450;DHT22;22475;51.390;7.180;2024-01-27T00:30:31;11.20;73.50
36450;DHT22;22475;51.390;7.180;2024-01-27T00:32:58;11.20;73.40
36450;DHT22;22475;51.390;7.180;2024-01-27T00:35:25;11.20;73.40
36450;DHT22;22475;51.390;7.180;2024-01-27T00:37:52;11.20;73.50
36450;DHT22;22475;51.390;7.180;2024-01-27T00:40:20;11.20;73.60
36450;DHT22;22475;51.390;7.180;2024-01-27T00:42:47;11.20;73.60
36450;DHT22;22475;51.390;7.180;2024-01-27T00:45:14;11.20;73.60
36450;DHT22;22475;51.390;7.180;2024-01-27T00:47:40;11.20;73.60
36450;DHT22;22475;51.390;7.180;2024-01-27T00:50:08;11.20;73.50
36450;DHT22;22475;51.390;7.180;2024-01-27T00:52:35;11.20;73.30
36450;DHT22;22475;51.390;7.180;2024-01-27T00:55:02;11.20;73.50
36450;DHT22;22475;51.390;7.180;2024-01-27T00:57:30;11.20;73.40
36450;DHT22;22475;51.390;7.180;2024-01-27T00:59:57;11.20;73.50
36450;DHT22;22475;51.390;7.180;2024-01-27T01:02:24;11.20;73.40
36450;DHT22;22475;51.390;7.180;2024-01-27T01:04:50;11.10;73.20
36450;DHT22;22475;51.390;7.180;2024-01-27T01:07:17;11.10;73.10
36450;DHT22;22475;51.390;7.180;2024-01-27T01:09:44;11.10;73.10
36450;DHT22;22475;51.390;7.180;2024-01-27T01:12:11;11.10;73.20
36450;DHT22;22475;51.390;7.180;2024-01-27T01:14:39;11.10;73.10
36450;DHT22;22475;51.390;7.180;2024-01-27T01:17:06;11.20;73.10
36450;DHT22;22475;51.390;7.180;2024-01-27T01:19:33;11.10;73.30
36450;DHT22;22475;51.390;7.180;2024-01-27T01:21:59;11.10;73.40
36450;DHT22;22475;51.390;7.180;2024-01-27T01:24:26;11.10;73.20
36450;DHT22;22475;51.390;7.180;2024-01-27T01:26:53;11.10;73.30
36450;DHT22;22475;51.390;7.180;2024-01-27T01:29:20;11.10;73.30
36450;DHT22;22475;51.390;7.180;2024-01-27T01:31:48;11.10;73.40
36450;DHT22;22475;51.390;7.180;2024-01-27T01:34:15;11.10;73.40
36450;DHT22;22475;51.390;7.180;2024-01-27T01:36:42;11.00;73.40
36450;DHT22;22475;51.390;7.180;2024-01-27T01:39:10;11.10;73.50
36450;DHT22;22475;51.390;7.180;2024-01-27T01:41:38;11.10;73.50
36450;DHT22;22475;51.390;7.180;2024-01-27T01:44:05;11.10;73.50
36450;DHT22;22475;51.390;7.180;2024-01-27T01:46:32;11.10;73.50
36450;DHT22;22475;51.390;7.180;2024-01-27T01:49:01;11.00;73.40
36450;DHT22;22475;51.390;7.180;2024-01-27T01:51:27;11.00;73.50
36450;DHT22;22475;51.390;7.180;2024-01-27T01:53:57;11.10;73.50
36450;DHT22;22475;51.390;7.180;2024-01-27T01:56:24;11.10;73.60
36450;DHT22;22475;51.390;7.180;2024-01-27T01:58:52;11.00;73.50
36450;DHT22;22475;51.390;7.180;2024-01-27T02:01:20;11.10;73.60
36450;DHT22;22475;51.390;7.180;2024-01-27T02:03:52;11.10;73.50
36450;DHT22;22475;51.390;7.180;2024-01-27T02:06:20;11.10;73.40
36450;DHT22;22475;51.390;7.180;2024-01-27T02:08:47;11.10;73.60
36450;DHT22;22475;51.390;7.180;2024-01-27T02:11:15;11.10;73.20
36450;DHT22;22475;51.390;7.180;2024-01-27T02:13:42;11.10;73.30
36450;DHT22;22475;51.390;7.180;2024-01-27T02:16:09;11.10;73.40
36450;DHT22;22475;51.390;7.180;2024-01-27T02:18:36;11.10;73.50
36450;DHT22;22475;51.390;7.180;2024-01-27T02:21:03;11.10;73.40
36450;DHT22;22475;51.390;7.180;2024-01-27T02:23:31;11.10;73.50
36450;DHT22;22475;51.390;7.180;2024-01-27T02:25:59;11.10;73.40
36450;DHT22;22475;51.390;7.180;2024-01-27T02:28:25;11.00;73.30
36450;DHT22;22475;51.390;7.180;2024-01-27T02:30:52;11.00;73.40
36450;DHT22;22475;51.390;7.180;2024-01-27T02:33:19;11.00;73.50
36450;DHT22;22475;51.390;7.180;2024-01-27T02:35:46;11.00;73.50
36450;DHT22;22475;51.390;7.180;2024-01-27T02:38:13;11.00;73.40
36450;DHT22;22475;51.390;7.180;2024-01-27T02:40:40;11.00;73.40
36450;DHT22;22475;51.390;7.180;2024-01-27T02:43:08;11.00;73.50
36450;DHT22;22475;51.390;7.180;2024-01-27T02:45:35;11.00;73.40
36450;DHT22;22475;51.390;7.180;2024-01-27T02:48:02;11.00;73.60
36450;DHT22;22475;51.390;7.180;2024-01-27T02:50:29;11.00;73.50
36450;DHT22;22475;51.390;7.180;2024-01-27T02:52:55;11.00;73.40
36450;DHT22;22475;51.390;7.180;2024-01-27T02:55:22;11.00;74.10
36450;DHT22;22475;51.390;7.180;2024-01-27T02:57:49;11.00;73.30
36450;DHT22;22475;51.390;7.180;2024-01-27T03:00:17;11.00;73.50
36450;DHT22;22475;51.390;7.180;2024-01-27T03:02:44;10.90;73.30
36450;DHT22;22475;51.390;7.180;2024-01-27T03:05:11;11.00;73.50
36450;DHT22;22475;51.390;7.180;2024-01-27T03:07:39;10.90;73.30
36450;DHT22;22475;51.390;7.180;2024-01-27T03:10:07;10.90;73.40
36450;DHT22;22475;51.390;7.180;2024-01-27T03:12:34;10.90;73.30
36450;DHT22;22475;51.390;7.180;2024-01-27T03:15:00;10.90;73.50
36450;DHT22;22475;51.390;7.180;2024-01-27T03:17:28;10.90;73.30
36450;DHT22;22475;51.390;7.180;2024-01-27T03:19:55;10.90;73.40
36450;DHT22;22475;51.390;7.180;2024-01-27T03:22:22;10.90;73.60
36450;DHT22;22475;51.390;7.180;2024-01-27T03:24:49;11.00;73.50
36450;DHT22;22475;51.390;7.180;2024-01-27T03:27:17;10.90;73.40
36450;DHT22;22475;51.390;7.180;2024-01-27T03:29:43;10.90;73.60
36450;DHT22;22475;51.390;7.180;2024-01-27T03:32:10;10.90;73.40
36450;DHT22;22475;51.390;7.180;2024-01-27T03:34:43;10.90;73.40
36450;DHT22;22475;51.390;7.180;2024-01-27T03:37:10;10.90;73.40
36450;DHT22;22475;51.390;7.180;2024-01-27T03:39:37;10.90;73.60
36450;DHT22;22475;51.390;7.180;2024-01-27T03:42:04;10.90;73.60
36450;DHT22;22475;51.390;7.180;2024-01-27T03:44:31;10.90;73.30
36450;DHT22;22475;51.390;7.180;2024-01-27T03:46:57;10.80;73.50
36450;DHT22;22475;51.390;7.180;2024-01-27T03:49:24;10.90;73.70
36450;DHT22;22475;51.390;7.180;2024-01-27T03:51:52;10.80;73.50
36450;DHT22;22475;51.390;7.180;2024-01-27T03:54:19;10.90;73.40
36450;DHT22;22475;51.390;7.180;2024-01-27T03:56:46;10.80;73.60
36450;DHT22;22475;51.390;7.180;2024-01-27T03:59:13;10.80;73.60
36450;DHT22;22475;51.390;7.180;2024-01-27T04:01:39;10.80;73.60
36450;DHT22;22475;51.390;7.180;2024-01-27T04:04:06;10.80;73.70
36450;DHT22;22475;51.390;7.180;2024-01-27T04:06:36;10.80;73.60
36450;DHT22;22475;51.390;7.180;2024-01-27T04:09:05;10.80;73.30
36450;DHT22;22475;51.390;7.180;2024-01-27T04:11:34;10.80;73.50
36450;DHT22;22475;51.390;7.180;2024-01-27T04:14:01;10.70;73.30
36450;DHT22;22475;51.390;7.180;2024-01-27T04:16:28;10.70;72.90
36450;DHT22;22475;51.390;7.180;2024-01-27T04:18:55;10.70;73.00
36450;DHT22;22475;51.390;7.180;2024-01-27T04:21:22;10.70;72.80
36450;DHT22;22475;51.390;7.180;2024-01-27T04:23:49;10.70;72.80
36450;DHT22;22475;51.390;7.180;2024-01-27T04:26:17;10.70;73.10
36450;DHT22;22475;51.390;7.180;2024-01-27T04:28:44;10.70;72.90
36450;DHT22;22475;51.390;7.180;2024-01-27T04:31:11;10.60;73.00
36450;DHT22;22475;51.390;7.180;2024-01-27T04:33:38;10.60;73.30
36450;DHT22;22475;51.390;7.180;2024-01-27T04:36:05;10.60;73.40
36450;DHT22;22475;51.390;7.180;2024-01-27T04:38:34;10.60;73.50
36450;DHT22;22475;51.390;7.180;2024-01-27T04:41:01;10.60;73.50
36450;DHT22;22475;51.390;7.180;2024-01-27T04:43:29;10.60;73.50
36450;DHT22;22475;51.390;7.180;2024-01-27T04:45:56;10.60;73.60
36450;DHT22;22475;51.390;7.180;2024-01-27T04:48:22;10.60;73.70
36450;DHT22;22475;51.390;7.180;2024-01-27T04:50:49;10.60;73.70
36450;DHT22;22475;51.390;7.180;2024-01-27T04:53:16;10.60;73.70
36450;DHT22;22475;51.390;7.180;2024-01-27T04:55:43;10.60;73.70
36450;DHT22;22475;51.390;7.180;2024-01-27T04:58:09;10.60;73.60
36450;DHT22;22475;51.390;7.180;2024-01-27T05:00:37;10.60;73.70
36450;DHT22;22475;51.390;7.180;2024-01-27T05:03:04;10.60;73.70
36450;DHT22;22475;51.390;7.180;2024-01-27T05:05:33;10.60;73.70
36450;DHT22;22475;51.390;7.180;2024-01-27T05:07:59;10.60;73.70
36450;DHT22;22475;51.390;7.180;2024-01-27T05:10:26;10.60;73.50
36450;DHT22;22475;51.390;7.180;2024-01-27T05:12:53;10.60;73.40
36450;DHT22;22475;51.390;7.180;2024-01-27T05:15:21;10.60;73.40
36450;DHT22;22475;51.390;7.180;2024-01-27T05:17:49;10.60;73.40
36450;DHT22;22475;51.390;7.180;2024-01-27T05:20:17;10.60;73.30
36450;DHT22;22475;51.390;7.180;2024-01-27T05:22:44;10.60;73.40
36450;DHT22;22475;51.390;7.180;2024-01-27T05:25:11;10.60;73.40
36450;DHT22;22475;51.390;7.180;2024-01-27T05:27:38;10.60;73.30
36450;DHT22;22475;51.390;7.180;2024-01-27T05:30:06;10.60;73.20
36450;DHT22;22475;51.390;7.180;2024-01-27T05:32:33;10.60;73.20
36450;DHT22;22475;51.390;7.180;2024-01-27T05:35:01;10.60;73.20
36450;DHT22;22475;51.390;7.180;2024-01-27T05:37:28;10.60;73.10
36450;DHT22;22475;51.390;7.180;2024-01-27T05:39:55;10.60;73.20
36450;DHT22;22475;51.390;7.180;2024-01-27T05:42:22;10.60;73.10
36450;DHT22;22475;51.390;7.180;2024-01-27T05:44:49;10.60;72.90
36450;DHT22;22475;51.390;7.180;2024-01-27T05:47:15;10.50;73.00
36450;DHT22;22475;51.390;7.180;2024-01-27T05:49:42;10.50;73.80
36450;DHT22;22475;51.390;7.180;2024-01-27T05:52:10;10.50;73.20
36450;DHT22;22475;51.390;7.180;2024-01-27T05:54:39;10.50;73.20
36450;DHT22;22475;51.390;7.180;2024-01-27T05:57:06;10.50;73.10
36450;DHT22;22475;51.390;7.180;2024-01-27T05:59:33;10.50;73.00
36450;DHT22;22475;51.390;7.180;2024-01-27T06:01:59;10.50;73.00
36450;DHT22;22475;51.390;7.180;2024-01-27T06:04:27;10.50;73.00
36450;DHT22;22475;51.390;7.180;2024-01-27T06:06:53;10.50;72.90
36450;DHT22;22475;51.390;7.180;2024-01-27T06:09:21;10.50;72.90
36450;DHT22;22475;51.390;7.180;2024-01-27T06:11:48;10.50;73.00
36450;DHT22;22475;51.390;7.180;2024-01-27T06:14:15;10.50;72.80
36450;DHT22;22475;51.390;7.180;2024-01-27T06:16:42;10.50;72.80
36450;DHT22;22475;51.390;7.180;2024-01-27T06:19:08;10.50;72.70
36450;DHT22;22475;51.390;7.180;2024-01-27T06:21:35;10.50;72.70
36450;DHT22;22475;51.390;7.180;2024-01-27T06:24:02;10.50;72.70
36450;DHT22;22475;51.390;7.180;2024-01-27T06:26:30;10.50;72.80
36450;DHT22;22475;51.390;7.180;2024-01-27T06:28:56;10.50;72.60
36450;DHT22;22475;51.390;7.180;2024-01-27T06:31:23;10.50;72.60
36450;DHT22;22475;51.390;7.180;2024-01-27T06:33:50;10.50;72.60
36450;DHT22;22475;51.390;7.180;2024-01-27T06:36:16;10.50;72.70
36450;DHT22;22475;51.390;7.180;2024-01-27T06:38:43;10.50;72.60
36450;DHT22;22475;51.390;7.180;2024-01-27T06:41:10;10.50;72.60
36450;DHT22;22475;51.390;7.180;2024-01-27T06:43:38;10.50;72.60
36450;DHT22;22475;51.390;7.180;2024-01-27T06:46:05;10.50;72.50
36450;DHT22;22475;51.390;7.180;2024-01-27T06:48:32;10.50;72.50
36450;DHT22;22475;51.390;7.180;2024-01-27T06:50:59;10.50;72.50
36450;DHT22;22475;51.390;7.180;2024-01-27T06:53:25;10.50;72.50
36450;DHT22;22475;51.390;7.180;2024-01-27T06:55:52;10.50;72.50
36450;DHT22;22475;51.390;7.180;2024-01-27T06:58:19;10.50;72.40
36450;DHT22;22475;51.390;7.180;2024-01-27T07:00:47;10.50;72.30
36450;DHT22;22475;51.390;7.180;2024-01-27T07:03:14;10.50;72.30
36450;DHT22;22475;51.390;7.180;2024-01-27T07:05:40;10.50;72.40
36450;DHT22;22475;51.390;7.180;2024-01-27T07:08:07;10.50;72.40
36450;DHT22;22475;51.390;7.180;2024-01-27T07:10:34;10.50;72.30
36450;DHT22;22475;51.390;7.180;2024-01-27T07:13:01;10.50;72.30
36450;DHT22;22475;51.390;7.180;2024-01-27T07:15:28;10.50;72.20
36450;DHT22;22475;51.390;7.180;2024-01-27T07:17:56;10.50;72.10
36450;DHT22;22475;51.390;7.180;2024-01-27T07:20:23;10.50;72.30
36450;DHT22;22475;51.390;7.180;2024-01-27T07:22:50;10.50;72.10
36450;DHT22;22475;51.390;7.180;2024-01-27T07:25:17;10.50;72.00
36450;DHT22;22475;51.390;7.180;2024-01-27T07:27:44;10.50;72.10
36450;DHT22;22475;51.390;7.180;2024-01-27T07:30:12;10.50;72.10
36450;DHT22;22475;51.390;7.180;2024-01-27T07:32:38;10.50;72.10
36450;DHT22;22475;51.390;7.180;2024-01-27T07:35:08;10.50;71.90
36450;DHT22;22475;51.390;7.180;2024-01-27T07:37:34;10.50;72.00
36450;DHT22;22475;51.390;7.180;2024-01-27T07:40:01;10.40;72.00
36450;DHT22;22475;51.390;7.180;2024-01-27T07:42:28;10.50;72.00
36450;DHT22;22475;51.390;7.180;2024-01-27T07:44:55;10.50;71.90
36450;DHT22;22475;51.390;7.180;2024-01-27T07:47:22;10.40;72.00
36450;DHT22;22475;51.390;7.180;2024-01-27T07:49:48;10.50;72.10
36450;DHT22;22475;51.390;7.180;2024-01-27T07:52:16;10.50;72.10
36450;DHT22;22475;51.390;7.180;2024-01-27T07:54:43;10.50;72.10
36450;DHT22;22475;51.390;7.180;2024-01-27T07:57:10;10.50;72.00
36450;DHT22;22475;51.390;7.180;2024-01-27T07:59:38;10.50;72.10
36450;DHT22;22475;51.390;7.180;2024-01-27T08:02:05;10.40;72.10
36450;DHT22;22475;51.390;7.180;2024-01-27T08:04:32;10.50;72.10
36450;DHT22;22475;51.390;7.180;2024-01-27T08:06:58;10.50;72.10
36450;DHT22;22475;51.390;7.180;2024-01-27T08:09:32;10.50;72.20
36450;DHT22;22475;51.390;7.180;2024-01-27T08:11:59;10.50;72.10
36450;DHT22;22475;51.390;7.180;2024-01-27T08:14:27;10.50;72.10
36450;DHT22;22475;51.390;7.180;2024-01-27T08:16:55;10.50;72.20
36450;DHT22;22475;51.390;7.180;2024-01-27T08:19:23;10.50;72.10
36450;DHT22;22475;51.390;7.180;2024-01-27T08:21:50;10.50;72.10
36450;DHT22;22475;51.390;7.180;2024-01-27T08:24:17;10.50;72.10
36450;DHT22;22475;51.390;7.180;2024-01-27T08:26:45;10.50;72.20
36450;DHT22;22475;51.390;7.180;2024-01-27T08:29:13;10.50;72.40
36450;DHT22;22475;51.390;7.180;2024-01-27T08:31:40;10.50;72.40
36450;DHT22;22475;51.390;7.180;2024-01-27T08:34:06;10.40;72.20
36450;DHT22;22475;51.390;7.180;2024-01-27T08:36:34;10.50;72.30
36450;DHT22;22475;51.390;7.180;2024-01-27T08:39:03;10.50;72.50
36450;DHT22;22475;51.390;7.180;2024-01-27T08:41:29;10.40;72.50
36450;DHT22;22475;51.390;7.180;2024-01-27T08:43:58;10.40;72.60
36450;DHT22;22475;51.390;7.180;2024-01-27T08:46:24;10.40;72.60
36450;DHT22;22475;51.390;7.180;2024-01-27T08:48:51;10.40;72.90
36450;DHT22;22475;51.390;7.180;2024-01-27T08:51:18;10.40;72.90
36450;DHT22;22475;51.390;7.180;2024-01-27T08:53:45;10.50;72.90
36450;DHT22;22475;51.390;7.180;2024-01-27T08:56:14;10.40;72.90
36450;DHT22;22475;51.390;7.180;2024-01-27T08:58:41;10.50;72.80
36450;DHT22;22475;51.390;7.180;2024-01-27T09:01:09;10.60;74.60
36450;DHT22;22475;51.390;7.180;2024-01-27T09:03:38;10.70;73.60
36450;DHT22;22475;51.390;7.180;2024-01-27T09:06:05;10.70;72.90
36450;DHT22;22475;51.390;7.180;2024-01-27T09:08:33;10.80;74.40
36450;DHT22;22475;51.390;7.180;2024-01-27T09:11:00;10.90;77.60
36450;DHT22;22475;51.390;7.180;2024-01-27T09:13:27;10.90;76.60
36450;DHT22;22475;51.390;7.180;2024-01-27T09:15:54;11.10;78.60
36450;DHT22;22475;51.390;7.180;2024-01-27T09:18:22;11.20;78.90
36450;DHT22;22475;51.390;7.180;2024-01-27T09:20:48;11.20;78.70
36450;DHT22;22475;51.390;7.180;2024-01-27T09:23:15;11.20;75.00
36450;DHT22;22475;51.390;7.180;2024-01-27T09:25:42;11.20;74.10
36450;DHT22;22475;51.390;7.180;2024-01-27T09:28:09;11.10;72.70
36450;DHT22;22475;51.390;7.180;2024-01-27T09:30:36;11.10;72.50
36450;DHT22;22475;51.390;7.180;2024-01-27T09:33:04;11.10;72.20
36450;DHT22;22475;51.390;7.180;2024-01-27T09:35:32;11.00;71.90
36450;DHT22;22475;51.390;7.180;2024-01-27T09:37:59;11.00;72.00
36450;DHT22;22475;51.390;7.180;2024-01-27T09:40:25;11.00;72.00
36450;DHT22;22475;51.390;7.180;2024-01-27T09:42:52;11.00;72.10
36450;DHT22;22475;51.390;7.180;2024-01-27T09:45:20;11.00;72.00
36450;DHT22;22475;51.390;7.180;2024-01-27T09:47:48;11.10;72.10
36450;DHT22;22475;51.390;7.180;2024-01-27T09:50:17;11.00;71.80
36450;DHT22;22475;51.390;7.180;2024-01-27T09:52:45;11.00;72.00
36450;DHT22;22475;51.390;7.180;2024-01-27T09:55:12;11.10;72.10
36450;DHT22;22475;51.390;7.180;2024-01-27T09:57:40;11.00;72.10
36450;DHT22;22475;51.390;7.180;2024-01-27T10:00:10;11.00;72.10
36450;DHT22;22475;51.390;7.180;2024-01-27T10:02:39;11.00;72.00
36450;DHT22;22475;51.390;7.180;2024-01-27T10:05:08;11.00;72.10
36450;DHT22;22475;51.390;7.180;2024-01-27T10:07:35;11.00;72.20
36450;DHT22;22475;51.390;7.180;2024-01-27T10:10:04;11.00;72.30
36450;DHT22;22475;51.390;7.180;2024-01-27T10:12:31;11.00;72.40
36450;DHT22;22475;51.390;7.180;2024-01-27T10:14:59;11.00;72.70
36450;DHT22;22475;51.390;7.180;2024-01-27T10:17:25;11.00;72.80
36450;DHT22;22475;51.390;7.180;2024-01-27T10:20:00;11.10;72.70
36450;DHT22;22475;51.390;7.180;2024-01-27T10:22:28;11.00;72.40
36450;DHT22;22475;51.390;7.180;2024-01-27T10:24:55;11.10;72.50
36450;DHT22;22475;51.390;7.180;2024-01-27T10:27:23;11.10;72.20
36450;DHT22;22475;51.390;7.180;2024-01-27T10:29:53;11.10;72.40
36450;DHT22;22475;51.390;7.180;2024-01-27T10:32:20;11.10;72.50
36450;DHT22;22475;51.390;7.180;2024-01-27T10:34:49;11.20;72.50
36450;DHT22;22475;51.390;7.180;2024-01-27T10:37:23;11.20;72.50
36450;DHT22;22475;51.390;7.180;2024-01-27T10:39:52;11.20;72.50
36450;DHT22;22475;51.390;7.180;2024-01-27T10:42:27;11.20;72.50
36450;DHT22;22475;51.390;7.180;2024-01-27T10:44:56;11.30;72.40
36450;DHT22;22475;51.390;7.180;2024-01-27T10:47:25;11.30;72.40
36450;DHT22;22475;51.390;7.180;2024-01-27T10:49:55;11.30;72.20
36450;DHT22;22475;51.390;7.180;2024-01-27T10:52:23;11.50;74.60
36450;DHT22;22475;51.390;7.180;2024-01-27T10:54:55;11.50;76.80
36450;DHT22;22475;51.390;7.180;2024-01-27T10:57:26;11.60;76.00
36450;DHT22;22475;51.390;7.180;2024-01-27T10:59:53;11.70;77.30
36450;DHT22;22475;51.390;7.180;2024-01-27T11:02:20;11.80;78.10
36450;DHT22;22475;51.390;7.180;2024-01-27T11:04:48;11.80;76.20
36450;DHT22;22475;51.390;7.180;2024-01-27T11:07:16;11.90;78.30
36450;DHT22;22475;51.390;7.180;2024-01-27T11:09:43;11.90;77.50
36450;DHT22;22475;51.390;7.180;2024-01-27T11:12:11;12.00;79.00
36450;DHT22;22475;51.390;7.180;2024-01-27T11:14:40;11.90;76.80
36450;DHT22;22475;51.390;7.180;2024-01-27T11:17:07;12.00;76.70
36450;DHT22;22475;51.390;7.180;2024-01-27T11:19:33;12.00;78.80
36450;DHT22;22475;51.390;7.180;2024-01-27T11:22:01;12.10;80.00
36450;DHT22;22475;51.390;7.180;2024-01-27T11:24:28;12.10;78.20
36450;DHT22;22475;51.390;7.180;2024-01-27T11:27:02;12.10;77.10
36450;DHT22;22475;51.390;7.180;2024-01-27T11:29:29;12.10;76.00
36450;DHT22;22475;51.390;7.180;2024-01-27T11:32:00;12.10;75.60
36450;DHT22;22475;51.390;7.180;2024-01-27T11:34:27;12.10;76.70
36450;DHT22;22475;51.390;7.180;2024-01-27T11:36:54;12.20;77.40
36450;DHT22;22475;51.390;7.180;2024-01-27T11:39:26;12.20;78.80
36450;DHT22;22475;51.390;7.180;2024-01-27T11:42:03;12.20;78.00
36450;DHT22;22475;51.390;7.180;2024-01-27T11:44:30;12.20;76.30
36450;DHT22;22475;51.390;7.180;2024-01-27T11:46:58;12.20;77.80
36450;DHT22;22475;51.390;7.180;2024-01-27T11:49:25;12.30;77.10
36450;DHT22;22475;51.390;7.180;2024-01-27T11:51:53;12.30;80.70
36450;DHT22;22475;51.390;7.180;2024-01-27T11:54:19;12.30;80.50
36450;DHT22;22475;51.390;7.180;2024-01-27T11:56:46;12.30;77.50
36450;DHT22;22475;51.390;7.180;2024-01-27T11:59:14;12.30;78.90
36450;DHT22;22475;51.390;7.180;2024-01-27T12:01:41;12.30;78.60
36450;DHT22;22475;51.390;7.180;2024-01-27T12:04:09;12.40;78.40
36450;DHT22;22475;51.390;7.180;2024-01-27T12:06:36;12.30;76.70
36450;DHT22;22475;51.390;7.180;2024-01-27T12:09:05;12.30;77.00
36450;DHT22;22475;51.390;7.180;2024-01-27T12:11:38;12.30;78.30
36450;DHT22;22475;51.390;7.180;2024-01-27T12:14:05;12.40;79.10
36450;DHT22;22475;51.390;7.180;2024-01-27T12:16:32;12.40;81.20
36450;DHT22;22475;51.390;7.180;2024-01-27T12:18:59;12.40;80.90
36450;DHT22;22475;51.390;7.180;2024-01-27T12:21:27;12.40;78.40
36450;DHT22;22475;51.390;7.180;2024-01-27T12:23:55;12.40;76.30
36450;DHT22;22475;51.390;7.180;2024-01-27T12:26:22;12.30;74.00
36450;DHT22;22475;51.390;7.180;2024-01-27T12:28:49;12.30;73.20
36450;DHT22;22475;51.390;7.180;2024-01-27T12:31:16;12.30;74.70
36450;DHT22;22475;51.390;7.180;2024-01-27T12:33:51;12.30;74.50
36450;DHT22;22475;51.390;7.180;2024-01-27T12:36:18;12.30;72.20
36450;DHT22;22475;51.390;7.180;2024-01-27T12:38:53;12.30;72.70
36450;DHT22;22475;51.390;7.180;2024-01-27T12:41:20;12.30;72.40
36450;DHT22;22475;51.390;7.180;2024-01-27T12:43:46;12.30;73.00
36450;DHT22;22475;51.390;7.180;2024-01-27T12:46:13;12.40;75.00
36450;DHT22;22475;51.390;7.180;2024-01-27T12:48:40;12.30;75.70
36450;DHT22;22475;51.390;7.180;2024-01-27T12:51:07;12.40;78.30
36450;DHT22;22475;51.390;7.180;2024-01-27T12:53:34;12.40;76.00
36450;DHT22;22475;51.390;7.180;2024-01-27T12:56:05;12.40;75.90
36450;DHT22;22475;51.390;7.180;2024-01-27T12:58:32;12.30;73.30
36450;DHT22;22475;51.390;7.180;2024-01-27T13:00:59;12.30;72.90
36450;DHT22;22475;51.390;7.180;2024-01-27T13:03:26;12.30;72.40
36450;DHT22;22475;51.390;7.180;2024-01-27T13:05:53;12.30;72.50
36450;DHT22;22475;51.390;7.180;2024-01-27T13:08:20;12.30;72.30
36450;DHT22;22475;51.390;7.180;2024-01-27T13:10:47;12.40;75.60
36450;DHT22;22475;51.390;7.180;2024-01-27T13:13:15;12.50;78.90
36450;DHT22;22475;51.390;7.180;2024-01-27T13:15:42;12.50;77.40
36450;DHT22;22475;51.390;7.180;2024-01-27T13:18:10;12.40;76.20
36450;DHT22;22475;51.390;7.180;2024-01-27T13:20:37;12.40;74.40
36450;DHT22;22475;51.390;7.180;2024-01-27T13:23:05;12.40;74.40
36450;DHT22;22475;51.390;7.180;2024-01-27T13:25:32;12.50;77.50
36450;DHT22;22475;51.390;7.180;2024-01-27T13:27:59;12.50;76.40
36450;DHT22;22475;51.390;7.180;2024-01-27T13:30:27;12.50;75.60
36450;DHT22;22475;51.390;7.180;2024-01-27T13:32:54;12.40;74.30
36450;DHT22;22475;51.390;7.180;2024-01-27T13:35:21;12.40;74.70
36450;DHT22;22475;51.390;7.180;2024-01-27T13:37:47;12.50;76.10
36450;DHT22;22475;51.390;7.180;2024-01-27T13:40:14;12.60;77.30
36450;DHT22;22475;51.390;7.180;2024-01-27T13:42:41;12.50;75.50
36450;DHT22;22475;51.390;7.180;2024-01-27T13:45:08;12.50;76.10
36450;DHT22;22475;51.390;7.180;2024-01-27T13:47:37;12.50;78.30
36450;DHT22;22475;51.390;7.180;2024-01-27T13:50:05;12.60;79.60
36450;DHT22;22475;51.390;7.180;2024-01-27T13:52:32;12.60;78.60
36450;DHT22;22475;51.390;7.180;2024-01-27T13:54:59;12.60;78.30
36450;DHT22;22475;51.390;7.180;2024-01-27T13:57:26;12.60;79.00
36450;DHT22;22475;51.390;7.180;2024-01-27T13:59:53;12.50;76.70
36450;DHT22;22475;51.390;7.180;2024-01-27T14:02:20;12.50;75.00
36450;DHT22;22475;51.390;7.180;2024-01-27T14:04:48;12.60;75.90
36450;DHT22;22475;51.390;7.180;2024-01-27T14:07:15;12.60;76.20
36450;DHT22;22475;51.390;7.180;2024-01-27T14:09:43;12.60;75.20
36450;DHT22;22475;51.390;7.180;2024-01-27T14:12:10;12.50;74.90
36450;DHT22;22475;51.390;7.180;2024-01-27T14:14:36;12.50;75.20
36450;DHT22;22475;51.390;7.180;2024-01-27T14:17:07;12.60;78.80
36450;DHT22;22475;51.390;7.180;2024-01-27T14:19:34;12.70;81.30
36450;DHT22;22475;51.390;7.180;2024-01-27T14:22:02;12.60;78.40
36450;DHT22;22475;51.390;7.180;2024-01-27T14:24:29;12.50;77.70
36450;DHT22;22475;51.390;7.180;2024-01-27T14:26:58;12.60;76.80
36450;DHT22;22475;51.390;7.180;2024-01-27T14:29:25;12.60;75.70
36450;DHT22;22475;51.390;7.180;2024-01-27T14:31:52;12.50;75.10
36450;DHT22;22475;51.390;7.180;2024-01-27T14:34:19;12.60;74.40
36450;DHT22;22475;51.390;7.180;2024-01-27T14:36:46;12.60;76.00
36450;DHT22;22475;51.390;7.180;2024-01-27T14:39:14;12.60;74.90
36450;DHT22;22475;51.390;7.180;2024-01-27T14:41:40;12.60;75.90
36450;DHT22;22475;51.390;7.180;2024-01-27T14:44:07;12.60;75.40
36450;DHT22;22475;51.390;7.180;2024-01-27T14:46:34;12.50;75.80
36450;DHT22;22475;51.390;7.180;2024-01-27T14:49:05;12.60;75.90
36450;DHT22;22475;51.390;7.180;2024-01-27T14:51:33;12.60;75.30
36450;DHT22;22475;51.390;7.180;2024-01-27T14:54:00;12.60;74.60
36450;DHT22;22475;51.390;7.180;2024-01-27T14:56:30;12.50;73.50
36450;DHT22;22475;51.390;7.180;2024-01-27T14:58:58;12.50;73.30
36450;DHT22;22475;51.390;7.180;2024-01-27T15:01:24;12.50;73.60
36450;DHT22;22475;51.390;7.180;2024-01-27T15:03:52;12.50;73.60
36450;DHT22;22475;51.390;7.180;2024-01-27T15:06:19;12.50;73.00
36450;DHT22;22475;51.390;7.180;2024-01-27T15:08:46;12.50;72.40
36450;DHT22;22475;51.390;7.180;2024-01-27T15:11:13;12.50;72.50
36450;DHT22;22475;51.390;7.180;2024-01-27T15:13:41;12.50;71.30
36450;DHT22;22475;51.390;7.180;2024-01-27T15:16:08;12.40;71.10
36450;DHT22;22475;51.390;7.180;2024-01-27T15:18:35;12.40;71.00
36450;DHT22;22475;51.390;7.180;2024-01-27T15:21:06;12.40;70.50
36450;DHT22;22475;51.390;7.180;2024-01-27T15:23:33;12.30;70.40
36450;DHT22;22475;51.390;7.180;2024-01-27T15:26:02;12.40;70.40
36450;DHT22;22475;51.390;7.180;2024-01-27T15:28:31;12.30;70.40
36450;DHT22;22475;51.390;7.180;2024-01-27T15:30:59;12.30;70.50